Time;durP1;ratioP1;P1;durP2;ratioP2;P2;SDS_P1;SDS_P2;PMS_P1;PMS_P2;Temp;Humidity;BMP_temperature;BMP_pressure;BME280_temperature;BME280_humidity;BME280_pressure;Samples;Min_cycle;Max_cycle;Signal;HPM_P1;HPM_P2
2023/11/05 00:01:53;;;;;;;2.20;1.92;;;11.50;99.90;;;;;;5034806;28;20217;-81
2023/11/05 00:04:21;;;;;;;2.30;1.58;;;11.50;99.90;;;;;;5035136;28;20271;-86
2023/11/05 00:06:48;;;;;;;2.30;1.90;;;11.50;99.90;;;;;;5033075;28;20553;-80
2023/11/05 00:09:18;;;;;;;2.13;1.52;;;11.50;99.90;;;;;;5034998;28;20230;-85
2023/11/05 00:11:46;;;;;;;1.95;1.73;;;11.50;99.90;;;;;;5035265;28;20249;-82
2023/11/05 00:14:14;;;;;;;2.08;1.70;;;11.50;99.90;;;;;;5035117;28;20225;-86
2023/11/05 00:16:41;;;;;;;3.85;1.52;;;11.50;99.90;;;;;;5034053;28;20221;-85
2023/11/05 00:19:11;;;;;;;1.90;1.75;;;11.50;99.90;;;;;;5033801;28;20228;-80
2023/11/05 00:21:38;;;;;;;5.22;1.70;;;11.50;99.90;;;;;;5034258;28;20232;-84
2023/11/05 00:24:06;;;;;;;1.85;1.75;;;11.50;99.90;;;;;;5034228;28;20225;-80
2023/11/05 00:26:34;;;;;;;2.78;1.60;;;11.60;99.90;;;;;;5033055;28;20237;-84
2023/11/05 00:29:03;;;;;;;2.85;2.00;;;11.60;99.90;;;;;;5034706;28;20221;-81
2023/11/05 00:31:31;;;;;;;3.25;2.65;;;11.60;99.90;;;;;;5033886;28;20226;-81
2023/11/05 00:34:00;;;;;;;1.90;1.67;;;11.60;99.90;;;;;;5035941;28;20232;-79
2023/11/05 00:36:27;;;;;;;1.90;1.80;;;11.60;99.90;;;;;;5054718;28;20228;-85
2023/11/05 00:38:56;;;;;;;2.15;1.83;;;11.70;99.90;;;;;;5054373;28;20593;-80
2023/11/05 00:41:25;;;;;;;2.63;2.40;;;11.60;99.90;;;;;;5054309;28;20231;-81
2023/11/05 00:43:54;;;;;;;2.55;1.90;;;11.60;99.90;;;;;;5053587;28;20236;-80
2023/11/05 00:46:23;;;;;;;2.72;2.10;;;11.60;99.90;;;;;;5054053;28;20316;-79
2023/11/05 00:48:52;;;;;;;2.30;1.80;;;11.60;99.90;;;;;;5047191;28;20319;-80
2023/11/05 00:51:18;;;;;;;2.25;2.05;;;11.60;99.90;;;;;;5033838;28;20232;-79
2023/11/05 00:53:45;;;;;;;2.38;2.03;;;11.60;99.90;;;;;;5033518;28;20600;-79
2023/11/05 00:56:13;;;;;;;2.63;1.85;;;11.60;99.90;;;;;;5028821;28;20217;-84
2023/11/05 00:58:40;;;;;;;2.38;1.83;;;11.60;99.90;;;;;;5044250;28;20652;-84
2023/11/05 01:01:07;;;;;;;2.05;1.85;;;11.60;99.90;;;;;;5034813;28;20218;-86
2023/11/05 01:03:34;;;;;;;4.15;2.03;;;11.70;99.90;;;;;;5034153;28;20241;-84
2023/11/05 01:06:03;;;;;;;2.65;1.80;;;11.60;99.90;;;;;;5033568;28;20225;-84
2023/11/05 01:08:30;;;;;;;1.90;1.70;;;11.60;99.90;;;;;;5039923;28;20220;-84
2023/11/05 01:10:58;;;;;;;3.55;2.67;;;11.60;99.90;;;;;;5034585;28;20769;-84
2023/11/05 01:13:26;;;;;;;2.83;1.98;;;11.60;99.90;;;;;;5034801;28;20267;-84
2023/11/05 01:15:53;;;;;;;1.67;1.50;;;11.70;99.90;;;;;;5025780;28;20229;-84
2023/11/05 01:18:20;;;;;;;2.35;2.20;;;11.70;99.90;;;;;;5047771;28;20225;-85
2023/11/05 01:20:48;;;;;;;2.67;2.17;;;11.70;99.90;;;;;;5033667;28;20674;-84
2023/11/05 01:23:17;;;;;;;2.08;1.88;;;11.80;99.90;;;;;;5033411;28;20233;-82
2023/11/05 01:25:44;;;;;;;1.85;1.73;;;11.80;99.90;;;;;;5039274;28;20617;-83
2023/11/05 01:28:11;;;;;;;3.00;1.95;;;11.80;99.90;;;;;;5009231;28;20281;-85
2023/11/05 01:30:38;;;;;;;3.05;2.10;;;11.80;99.90;;;;;;5013591;28;20256;-84
2023/11/05 01:33:05;;;;;;;2.03;1.65;;;11.70;99.90;;;;;;5012773;28;20230;-80
2023/11/05 01:35:32;;;;;;;1.83;1.73;;;11.70;99.90;;;;;;5048667;28;20228;-80
2023/11/05 01:37:59;;;;;;;2.00;1.70;;;11.80;99.90;;;;;;5052050;28;20240;-80
2023/11/05 01:40:27;;;;;;;1.98;1.60;;;11.80;99.90;;;;;;5052750;28;20225;-85
2023/11/05 01:43:00;;;;;;;1.90;1.67;;;11.80;99.90;;;;;;5032590;28;20224;-80
2023/11/05 01:45:27;;;;;;;2.38;2.13;;;11.80;99.90;;;;;;5032752;28;20240;-85
2023/11/05 01:47:55;;;;;;;1.80;1.20;;;11.80;99.90;;;;;;5032534;28;20229;-84
2023/11/05 01:50:25;;;;;;;2.00;1.48;;;11.80;99.90;;;;;;5032940;28;20240;-81
2023/11/05 01:53:22;;;;;;;;;;;;;;;;;;;;;
2023/11/05 01:55:52;;;;;;;2.40;1.60;;;11.90;99.90;;;;;;5036403;28;20656;-84
2023/11/05 01:58:19;;;;;;;3.35;1.60;;;11.90;99.90;;;;;;5036940;28;20232;-79
2023/11/05 02:00:46;;;;;;;1.45;1.35;;;11.80;99.90;;;;;;5037044;28;20225;-79
2023/11/05 02:03:14;;;;;;;1.63;1.40;;;11.90;99.90;;;;;;5037483;28;20705;-85
2023/11/05 02:05:41;;;;;;;6.60;1.73;;;11.90;99.90;;;;;;5037093;28;20675;-84
2023/11/05 02:08:08;;;;;;;1.60;1.40;;;11.90;99.90;;;;;;5036405;28;20233;-80
2023/11/05 02:10:35;;;;;;;1.55;1.45;;;11.90;99.90;;;;;;5036774;28;20217;-80
2023/11/05 02:13:04;;;;;;;2.08;1.30;;;11.90;99.90;;;;;;5036296;28;20764;-79
2023/11/05 02:15:34;;;;;;;2.70;1.50;;;11.90;99.90;;;;;;5036741;28;20217;-84
2023/11/05 02:18:01;;;;;;;2.13;1.70;;;11.80;99.90;;;;;;5036236;28;20304;-84
2023/11/05 02:20:28;;;;;;;2.67;1.95;;;11.90;99.90;;;;;;5036912;28;20221;-84
2023/11/05 02:26:11;;;;;;;2.60;1.50;;;11.80;99.90;;;;;;5029448;28;20231;-80
2023/11/05 02:28:37;;;;;;;2.80;1.70;;;11.80;99.90;;;;;;5036453;28;20329;-79
2023/11/05 02:31:05;;;;;;;2.45;1.80;;;11.70;99.90;;;;;;5030360;28;20304;-84
2023/11/05 02:33:32;;;;;;;1.88;1.70;;;11.70;99.90;;;;;;5040748;28;20214;-79
2023/11/05 02:35:59;;;;;;;3.05;2.50;;;11.70;99.90;;;;;;5054712;28;20311;-80
2023/11/05 02:38:26;;;;;;;1.67;1.45;;;11.70;99.90;;;;;;5056840;28;20323;-80
2023/11/05 02:40:53;;;;;;;1.85;1.70;;;11.60;99.90;;;;;;5055987;28;20591;-83
2023/11/05 02:43:21;;;;;;;2.42;1.65;;;11.60;99.90;;;;;;5056561;28;20678;-83
2023/11/05 02:45:48;;;;;;;2.40;1.85;;;11.50;99.90;;;;;;5055552;28;20255;-79
2023/11/05 02:48:15;;;;;;;2.10;1.80;;;11.50;99.90;;;;;;5055268;28;20316;-83
2023/11/05 02:50:43;;;;;;;4.03;2.20;;;11.50;99.90;;;;;;5036640;28;20229;-79
2023/11/05 02:53:15;;;;;;;2.25;1.80;;;11.50;99.90;;;;;;5036490;28;20640;-84
2023/11/05 02:55:42;;;;;;;1.70;1.60;;;11.50;99.90;;;;;;5036178;28;20228;-83
2023/11/05 02:58:12;;;;;;;2.15;1.50;;;11.40;99.90;;;;;;5036362;28;20230;-79
2023/11/05 03:00:40;;;;;;;2.15;2.00;;;11.50;99.90;;;;;;5036372;28;20253;-79
2023/11/05 03:03:08;;;;;;;1.70;1.60;;;11.50;99.90;;;;;;5027233;28;20229;-79
2023/11/05 03:05:35;;;;;;;2.30;2.10;;;11.40;99.90;;;;;;5035650;28;20236;-79
2023/11/05 03:08:02;;;;;;;1.88;1.40;;;11.40;99.90;;;;;;5035634;28;20263;-79
2023/11/05 03:10:29;;;;;;;2.25;2.00;;;11.40;99.90;;;;;;5035835;28;20802;-79
2023/11/05 03:12:56;;;;;;;1.75;1.65;;;11.40;99.90;;;;;;5034953;28;20249;-79
2023/11/05 03:15:23;;;;;;;2.25;1.80;;;11.40;99.90;;;;;;5035702;28;20283;-79
2023/11/05 03:17:51;;;;;;;1.48;1.38;;;11.40;99.90;;;;;;5035420;28;20386;-83
2023/11/05 03:20:18;;;;;;;1.80;1.70;;;11.40;99.90;;;;;;5035356;28;20312;-80
2023/11/05 03:22:46;;;;;;;1.80;1.70;;;11.40;99.90;;;;;;5035747;28;20232;-80
2023/11/05 03:25:13;;;;;;;1.92;1.73;;;11.40;99.90;;;;;;5035344;28;20225;-80
2023/11/05 03:27:44;;;;;;;2.85;2.33;;;11.40;99.90;;;;;;5035895;28;20680;-80
2023/11/05 03:30:12;;;;;;;2.05;1.95;;;11.40;99.90;;;;;;5035122;28;20237;-80
2023/11/05 03:32:40;;;;;;;2.25;2.05;;;11.50;99.90;;;;;;5036203;28;20287;-83
2023/11/05 03:35:09;;;;;;;2.10;1.90;;;11.50;99.90;;;;;;5043435;28;20247;-84
2023/11/05 03:37:36;;;;;;;1.83;1.70;;;11.40;99.90;;;;;;5056120;28;20231;-84
2023/11/05 03:40:04;;;;;;;2.80;1.80;;;11.40;99.90;;;;;;5056790;28;20663;-83
2023/11/05 03:42:31;;;;;;;1.83;1.73;;;11.40;99.90;;;;;;5055096;28;20252;-82
2023/11/05 03:44:58;;;;;;;2.38;1.52;;;11.40;99.90;;;;;;5055184;28;20382;-83
2023/11/05 03:47:25;;;;;;;2.45;1.63;;;11.40;99.90;;;;;;5055401;28;20268;-79
2023/11/05 03:49:52;;;;;;;1.80;1.65;;;11.40;99.90;;;;;;5040733;28;20236;-84
2023/11/05 03:52:21;;;;;;;1.50;1.30;;;11.40;99.90;;;;;;5034982;28;20233;-79
2023/11/05 03:54:48;;;;;;;1.95;1.83;;;11.40;99.90;;;;;;5034871;28;20313;-79
2023/11/05 03:57:15;;;;;;;1.65;1.52;;;11.40;99.90;;;;;;5034072;28;20225;-80
2023/11/05 03:59:42;;;;;;;2.58;2.38;;;11.40;99.90;;;;;;5035099;28;20253;-80
2023/11/05 04:02:09;;;;;;;1.52;1.42;;;11.40;99.90;;;;;;5034466;28;20564;-79
2023/11/05 04:04:36;;;;;;;1.80;1.60;;;11.40;99.90;;;;;;5036144;28;20739;-79
2023/11/05 04:07:06;;;;;;;1.70;1.60;;;11.40;99.90;;;;;;5035422;28;20321;-79
2023/11/05 04:09:35;;;;;;;1.95;1.67;;;11.40;99.90;;;;;;5035607;28;20538;-80
2023/11/05 04:12:03;;;;;;;2.97;1.40;;;11.40;99.90;;;;;;5034003;28;20565;-80
2023/11/05 04:14:30;;;;;;;1.60;1.50;;;11.40;99.90;;;;;;5035080;28;20233;-83
2023/11/05 04:16:57;;;;;;;2.00;1.80;;;11.50;99.90;;;;;;5031505;28;20668;-79
2023/11/05 04:19:24;;;;;;;1.90;1.80;;;11.50;99.90;;;;;;5033271;28;20706;-80
2023/11/05 04:21:51;;;;;;;2.40;2.20;;;11.50;99.90;;;;;;5033563;28;20304;-83
2023/11/05 04:24:18;;;;;;;2.40;1.63;;;11.50;99.90;;;;;;5032139;28;20708;-83
2023/11/05 04:26:46;;;;;;;2.30;1.70;;;11.50;99.90;;;;;;5031677;28;20541;-79
2023/11/05 04:29:13;;;;;;;1.88;1.77;;;11.50;99.90;;;;;;5032122;28;20301;-83
2023/11/05 04:31:41;;;;;;;3.20;1.85;;;11.50;99.90;;;;;;5032710;28;20275;-83
2023/11/05 04:34:07;;;;;;;2.05;1.58;;;11.40;99.90;;;;;;5037486;28;20271;-83
2023/11/05 04:36:39;;;;;;;2.08;1.98;;;11.40;99.90;;;;;;5054269;28;20307;-79
2023/11/05 04:39:06;;;;;;;1.90;1.77;;;11.40;99.90;;;;;;5033502;28;20232;-83
2023/11/05 04:41:33;;;;;;;2.30;2.15;;;11.30;99.90;;;;;;5034110;28;20339;-79
2023/11/05 04:44:01;;;;;;;2.33;1.77;;;11.30;99.90;;;;;;5033788;28;20693;-79
2023/11/05 04:46:28;;;;;;;1.50;1.40;;;11.40;99.90;;;;;;5034280;28;20225;-83
2023/11/05 04:48:56;;;;;;;2.30;1.70;;;11.40;99.90;;;;;;5034266;28;20229;-83
2023/11/05 04:51:24;;;;;;;2.20;2.03;;;11.40;99.90;;;;;;5033071;28;20307;-79
2023/11/05 04:53:51;;;;;;;1.80;1.52;;;11.40;99.90;;;;;;5033051;28;20229;-78
2023/11/05 04:56:18;;;;;;;1.63;1.52;;;11.40;99.90;;;;;;5033618;28;20259;-79
2023/11/05 04:58:45;;;;;;;2.47;1.35;;;11.40;99.90;;;;;;5034144;28;20235;-83
2023/11/05 05:01:14;;;;;;;2.35;2.15;;;11.50;99.90;;;;;;5033784;28;20229;-78
2023/11/05 05:03:44;;;;;;;2.42;1.30;;;11.50;99.90;;;;;;5033477;28;20222;-78
2023/11/05 05:06:11;;;;;;;2.40;1.60;;;11.50;99.90;;;;;;5032971;28;20678;-78
2023/11/05 05:08:38;;;;;;;1.80;1.70;;;11.50;99.90;;;;;;5033563;28;20729;-78
2023/11/05 05:11:05;;;;;;;1.70;1.35;;;11.40;99.90;;;;;;5033167;28;20239;-79
2023/11/05 05:13:32;;;;;;;1.35;1.25;;;11.30;99.90;;;;;;5033854;28;20811;-83
2023/11/05 05:16:01;;;;;;;1.60;1.25;;;11.40;99.90;;;;;;5034521;28;20249;-83
2023/11/05 05:18:29;;;;;;;2.47;1.77;;;11.40;99.90;;;;;;5034413;28;20225;-79
2023/11/05 05:20:56;;;;;;;1.83;1.70;;;11.40;99.90;;;;;;5033849;28;20308;-79
2023/11/05 05:23:23;;;;;;;1.40;1.23;;;11.40;99.90;;;;;;5032973;28;20272;-79
2023/11/05 05:25:57;;;;;;;2.85;1.48;;;11.40;99.90;;;;;;5033903;28;20229;-78
2023/11/05 05:28:24;;;;;;;1.25;1.15;;;11.40;99.90;;;;;;5032461;28;20241;-78
2023/11/05 05:30:51;;;;;;;1.30;1.20;;;11.40;99.90;;;;;;5033408;28;20213;-83
2023/11/05 05:33:20;;;;;;;1.20;1.10;;;11.40;99.90;;;;;;5034798;28;20279;-83
2023/11/05 05:35:49;;;;;;;1.60;0.98;;;11.40;99.90;;;;;;5040226;28;20687;-83
2023/11/05 05:38:16;;;;;;;3.45;1.10;;;11.40;99.90;;;;;;5051748;28;20225;-81
2023/11/05 05:40:46;;;;;;;1.70;1.10;;;11.40;99.90;;;;;;5052581;28;20221;-82
2023/11/05 05:43:13;;;;;;;1.45;1.30;;;11.40;99.90;;;;;;5044644;28;20213;-82
2023/11/05 05:45:40;;;;;;;1.88;1.30;;;11.40;99.90;;;;;;5043430;28;20255;-77
2023/11/05 05:48:07;;;;;;;3.13;2.88;;;11.40;99.90;;;;;;5031681;28;20225;-78
2023/11/05 05:50:34;;;;;;;1.48;1.30;;;11.40;99.90;;;;;;5032382;28;20225;-78
2023/11/05 05:53:02;;;;;;;0.88;0.88;;;11.40;99.90;;;;;;5038401;28;20706;-81
2023/11/05 05:55:35;;;;;;;1.60;1.20;;;11.40;99.90;;;;;;5034145;28;20281;-82
2023/11/05 05:58:03;;;;;;;1.95;1.30;;;11.40;99.90;;;;;;5034225;28;20292;-82
2023/11/05 06:00:30;;;;;;;1.20;1.10;;;11.40;99.90;;;;;;5033248;28;20224;-78
2023/11/05 06:02:57;;;;;;;2.45;1.23;;;11.40;99.90;;;;;;5033361;28;20225;-82
2023/11/05 06:05:25;;;;;;;1.92;1.20;;;11.40;99.90;;;;;;5032636;28;20257;-82
2023/11/05 06:07:51;;;;;;;1.70;1.10;;;11.40;99.90;;;;;;5033382;28;20304;-82
2023/11/05 06:10:19;;;;;;;1.13;0.98;;;11.40;99.90;;;;;;5032388;28;20217;-82
2023/11/05 06:12:49;;;;;;;2.17;1.15;;;11.40;99.90;;;;;;5032853;28;20264;-82
2023/11/05 06:15:16;;;;;;;1.75;0.80;;;11.30;99.90;;;;;;5032367;28;20233;-82
2023/11/05 06:17:43;;;;;;;1.05;1.00;;;11.30;99.90;;;;;;5032279;28;20249;-82
2023/11/05 06:20:11;;;;;;;1.42;1.10;;;11.30;99.90;;;;;;5032911;28;20287;-82
2023/11/05 06:22:38;;;;;;;1.00;0.90;;;11.40;99.90;;;;;;5032828;28;20221;-82
2023/11/05 06:25:06;;;;;;;1.05;0.95;;;11.40;99.90;;;;;;5031892;28;20226;-78
2023/11/05 06:27:34;;;;;;;1.20;1.08;;;11.40;99.90;;;;;;5032098;28;20680;-78
2023/11/05 06:30:03;;;;;;;1.35;1.25;;;11.40;99.90;;;;;;5032978;28;20231;-79
2023/11/05 06:32:30;;;;;;;1.10;1.00;;;11.40;99.90;;;;;;5032093;28;20229;-80
2023/11/05 06:34:57;;;;;;;1.30;0.93;;;11.40;99.90;;;;;;5032916;28;20247;-84
2023/11/05 06:37:24;;;;;;;1.15;1.00;;;11.40;99.90;;;;;;5032592;28;20739;-80
2023/11/05 06:39:51;;;;;;;1.00;0.90;;;11.50;99.90;;;;;;5034128;28;20924;-80
2023/11/05 06:42:20;;;;;;;1.10;1.00;;;11.50;99.90;;;;;;5035847;28;20225;-83
2023/11/05 06:44:49;;;;;;;3.60;1.23;;;11.50;99.90;;;;;;5036867;28;20330;-79
2023/11/05 06:47:16;;;;;;;1.00;0.90;;;11.60;99.90;;;;;;5035998;28;20225;-84
2023/11/05 06:49:43;;;;;;;2.63;0.95;;;11.60;99.90;;;;;;5036371;28;20248;-83
2023/11/05 06:52:13;;;;;;;1.05;0.88;;;11.60;99.90;;;;;;5036286;28;20228;-80
2023/11/05 06:54:41;;;;;;;1.40;0.98;;;11.60;99.90;;;;;;5035846;28;20251;-79
2023/11/05 06:57:09;;;;;;;1.10;1.02;;;11.70;99.90;;;;;;5036238;28;20264;-79
2023/11/05 06:59:36;;;;;;;1.63;0.98;;;11.70;99.90;;;;;;5035505;28;20225;-80
2023/11/05 07:02:05;;;;;;;2.08;0.93;;;11.70;99.90;;;;;;5036464;28;20256;-80
2023/11/05 07:04:32;;;;;;;1.30;1.20;;;11.80;99.90;;;;;;5035775;28;20260;-84
2023/11/05 07:07:00;;;;;;;1.80;0.90;;;11.90;99.90;;;;;;5035821;28;20556;-84
2023/11/05 07:09:27;;;;;;;2.90;1.20;;;11.90;99.90;;;;;;5035451;28;20229;-83
2023/11/05 07:11:54;;;;;;;1.00;0.90;;;12.00;99.90;;;;;;5036149;28;20229;-84
2023/11/05 07:14:21;;;;;;;3.78;1.30;;;12.00;99.90;;;;;;5035195;28;20256;-83
2023/11/05 07:16:48;;;;;;;1.10;1.00;;;12.00;99.90;;;;;;5035836;28;20229;-83
2023/11/05 07:19:18;;;;;;;1.65;1.15;;;12.00;99.90;;;;;;5035727;28;20735;-84
2023/11/05 07:21:45;;;;;;;1.77;1.00;;;12.00;99.90;;;;;;5035629;28;20536;-83
2023/11/05 07:24:14;;;;;;;2.40;2.00;;;12.00;99.90;;;;;;5035508;28;20221;-83
2023/11/05 07:26:42;;;;;;;2.08;1.30;;;12.00;99.90;;;;;;5035215;28;20264;-84
2023/11/05 07:29:10;;;;;;;1.98;1.40;;;12.10;99.90;;;;;;5035547;28;20232;-84
2023/11/05 07:31:37;;;;;;;1.42;1.25;;;12.10;99.90;;;;;;5035221;28;20225;-83
2023/11/05 07:34:04;;;;;;;1.23;1.13;;;12.10;99.90;;;;;;5035940;28;20745;-83
2023/11/05 07:36:33;;;;;;;1.92;1.00;;;12.20;99.90;;;;;;5034839;28;20233;-83
2023/11/05 07:39:00;;;;;;;1.58;1.30;;;12.10;99.90;;;;;;5035379;28;20221;-83
2023/11/05 07:41:27;;;;;;;1.90;1.23;;;12.20;99.90;;;;;;5034720;28;20582;-83
2023/11/05 07:43:54;;;;;;;1.30;1.20;;;12.20;99.90;;;;;;5035420;28;20221;-80
2023/11/05 07:46:21;;;;;;;1.20;1.10;;;12.20;99.90;;;;;;5034955;28;20291;-83
2023/11/05 07:48:47;;;;;;;1.73;1.30;;;12.20;99.90;;;;;;5035618;28;20571;-83
2023/11/05 07:51:17;;;;;;;5.35;1.25;;;12.20;99.90;;;;;;5035195;28;20229;-82
2023/11/05 07:53:46;;;;;;;1.27;1.10;;;12.20;99.90;;;;;;5034734;28;20221;-83
2023/11/05 07:56:16;;;;;;;1.20;1.10;;;12.20;99.90;;;;;;5035356;28;20628;-83
2023/11/05 07:58:44;;;;;;;1.20;1.10;;;12.30;99.90;;;;;;5034732;28;20237;-84
2023/11/05 08:01:11;;;;;;;1.58;1.20;;;12.20;99.90;;;;;;5035724;28;20245;-84
2023/11/05 08:03:40;;;;;;;1.50;1.20;;;12.30;99.90;;;;;;5036191;28;20627;-83
2023/11/05 08:06:07;;;;;;;1.90;1.20;;;12.30;99.90;;;;;;5035762;28;20271;-83
2023/11/05 08:08:34;;;;;;;1.40;1.30;;;12.30;99.90;;;;;;5035546;28;20283;-82
2023/11/05 08:11:03;;;;;;;1.52;1.38;;;12.30;99.90;;;;;;5035952;28;20236;-83
2023/11/05 08:13:30;;;;;;;2.33;1.65;;;12.30;99.90;;;;;;5034863;28;20233;-82
2023/11/05 08:15:58;;;;;;;1.73;1.63;;;12.40;99.90;;;;;;5037290;28;20226;-82
2023/11/05 08:18:25;;;;;;;1.88;1.70;;;12.40;99.90;;;;;;5035443;28;20217;-83
2023/11/05 08:20:53;;;;;;;1.85;1.67;;;12.50;99.90;;;;;;5035110;28;20603;-82
2023/11/05 08:23:20;;;;;;;1.58;1.38;;;12.50;99.90;;;;;;5035409;28;20755;-82
2023/11/05 08:25:47;;;;;;;1.80;1.48;;;12.50;99.90;;;;;;5035841;28;20283;-82
2023/11/05 08:28:16;;;;;;;1.95;1.85;;;12.50;99.90;;;;;;5026743;28;20313;-82
2023/11/05 08:30:43;;;;;;;2.28;1.75;;;12.50;99.90;;;;;;5030667;28;20237;-82
2023/11/05 08:33:11;;;;;;;3.03;1.45;;;12.50;99.90;;;;;;5034727;28;20225;-83
2023/11/05 08:35:38;;;;;;;2.80;1.80;;;12.50;99.90;;;;;;5034250;28;20240;-82
2023/11/05 08:38:06;;;;;;;7.05;5.85;;;12.50;99.90;;;;;;5034287;28;20313;-82
2023/11/05 08:40:33;;;;;;;3.65;2.88;;;12.50;99.90;;;;;;5033961;28;20237;-83
2023/11/05 08:43:00;;;;;;;4.40;1.98;;;12.50;99.90;;;;;;5035304;28;20225;-82
2023/11/05 08:45:28;;;;;;;2.35;2.15;;;12.50;99.90;;;;;;5034166;28;20308;-82
2023/11/05 08:47:55;;;;;;;1.77;1.67;;;12.50;99.90;;;;;;5034020;28;20217;-81
2023/11/05 08:50:25;;;;;;;2.65;1.95;;;12.50;99.90;;;;;;5034166;28;20733;-82
2023/11/05 08:52:53;;;;;;;4.78;1.48;;;12.50;99.90;;;;;;5032719;28;20725;-82
2023/11/05 08:55:28;;;;;;;2.03;1.70;;;12.50;99.90;;;;;;5034377;28;20260;-82
2023/11/05 08:57:56;;;;;;;3.95;2.30;;;12.50;99.90;;;;;;5033944;28;20236;-82
2023/11/05 09:00:24;;;;;;;1.63;1.52;;;12.50;99.90;;;;;;5034035;28;20695;-82
2023/11/05 09:02:53;;;;;;;2.38;1.85;;;12.50;99.90;;;;;;5033119;28;20328;-82
2023/11/05 09:05:22;;;;;;;1.85;1.75;;;12.60;99.90;;;;;;5034344;28;20237;-88
2023/11/05 09:07:51;;;;;;;2.20;2.00;;;12.50;99.90;;;;;;5033888;28;20291;-82
2023/11/05 09:10:18;;;;;;;1.77;1.60;;;12.50;99.90;;;;;;5033920;28;20229;-83
2023/11/05 09:12:45;;;;;;;2.88;1.95;;;12.50;99.90;;;;;;5033739;28;20354;-81
2023/11/05 09:15:12;;;;;;;3.30;1.75;;;12.50;99.90;;;;;;5033537;28;20257;-81
2023/11/05 09:17:39;;;;;;;3.15;2.35;;;12.40;99.90;;;;;;5032986;28;20316;-81
2023/11/05 09:20:10;;;;;;;4.00;1.90;;;12.50;99.90;;;;;;5033624;28;20687;-81
2023/11/05 09:22:37;;;;;;;1.95;1.75;;;12.50;99.90;;;;;;5032978;28;20228;-81
2023/11/05 09:25:05;;;;;;;2.40;2.20;;;12.50;99.90;;;;;;5032932;28;20244;-81
2023/11/05 09:27:32;;;;;;;2.28;2.08;;;12.50;99.90;;;;;;5033588;28;20225;-81
2023/11/05 09:29:59;;;;;;;2.22;1.88;;;12.60;99.90;;;;;;5016562;28;20309;-81
2023/11/05 09:32:26;;;;;;;2.03;1.83;;;12.60;99.90;;;;;;5013986;28;20257;-80
2023/11/05 09:34:53;;;;;;;1.95;1.75;;;12.60;99.90;;;;;;5068459;22;20248;-80
2023/11/05 09:37:22;;;;;;;1.95;1.80;;;12.60;99.90;;;;;;5053408;28;20675;-81
2023/11/05 09:39:49;;;;;;;2.20;2.10;;;12.60;99.90;;;;;;5052776;28;20240;-81
2023/11/05 09:42:18;;;;;;;2.17;1.48;;;12.70;99.90;;;;;;5053045;28;20307;-81
2023/11/05 09:44:45;;;;;;;1.80;1.70;;;12.60;99.90;;;;;;5053193;28;20229;-80
2023/11/05 09:47:13;;;;;;;2.25;2.08;;;12.60;99.90;;;;;;5053258;28;20220;-81
2023/11/05 09:49:40;;;;;;;3.38;2.15;;;12.60;99.90;;;;;;5052949;28;20245;-79
2023/11/05 09:52:11;;;;;;;3.03;2.83;;;12.60;99.90;;;;;;5052301;28;20304;-78
2023/11/05 09:54:43;;;;;;;2.67;2.33;;;12.60;99.90;;;;;;5053206;28;20229;-81
2023/11/05 09:57:10;;;;;;;3.60;1.80;;;12.50;99.90;;;;;;5052912;28;20225;-81
2023/11/05 09:59:45;;;;;;;2.80;2.15;;;12.60;99.90;;;;;;5050368;28;20233;-81
2023/11/05 10:02:12;;;;;;;3.00;2.75;;;12.60;99.90;;;;;;5050020;28;20220;-78
2023/11/05 10:04:40;;;;;;;2.38;1.90;;;12.60;99.90;;;;;;5052131;28;20753;-79
2023/11/05 10:07:08;;;;;;;6.25;2.22;;;12.60;99.90;;;;;;5052529;28;20229;-79
2023/11/05 10:09:35;;;;;;;2.55;2.35;;;12.60;99.90;;;;;;5052774;28;20239;-78
2023/11/05 10:12:04;;;;;;;2.00;1.90;;;12.60;99.90;;;;;;5052677;28;20228;-80
2023/11/05 10:14:32;;;;;;;2.88;2.45;;;12.60;99.90;;;;;;5054423;28;20232;-79
2023/11/05 10:16:59;;;;;;;2.67;2.05;;;12.60;99.90;;;;;;5057244;28;20694;-77
2023/11/05 10:19:26;;;;;;;2.38;2.17;;;12.60;99.90;;;;;;5057458;28;20224;-79
2023/11/05 10:21:54;;;;;;;2.05;1.85;;;12.70;99.90;;;;;;5057067;28;20244;-79
2023/11/05 10:24:40;;;;;;;2.10;1.90;;;12.60;99.90;;;;;;5057014;28;20701;-79
2023/11/05 10:27:09;;;;;;;2.28;2.08;;;12.70;99.90;;;;;;5047959;28;20251;-81
2023/11/05 10:29:38;;;;;;;3.90;2.45;;;12.70;99.90;;;;;;5046939;28;20228;-80
2023/11/05 10:32:05;;;;;;;2.88;2.25;;;12.70;99.90;;;;;;5047429;28;20693;-80
2023/11/05 10:34:34;;;;;;;3.85;3.45;;;12.80;99.90;;;;;;5065827;28;20225;-78
2023/11/05 10:37:01;;;;;;;2.25;2.05;;;12.80;99.90;;;;;;5062610;28;20224;-79
2023/11/05 10:39:28;;;;;;;3.73;2.00;;;12.80;99.90;;;;;;5067810;28;20229;-81
2023/11/05 10:41:56;;;;;;;2.13;2.03;;;12.80;99.90;;;;;;5061999;28;20860;-78
2023/11/05 10:44:25;;;;;;;3.05;2.35;;;12.80;99.90;;;;;;5055939;28;20267;-81
2023/11/05 10:46:55;;;;;;;2.95;1.40;;;12.80;99.90;;;;;;5060448;28;20308;-82
2023/11/05 10:49:23;;;;;;;2.33;2.13;;;12.90;99.90;;;;;;5056226;28;20228;-78
2023/11/05 10:51:51;;;;;;;2.67;2.00;;;12.90;99.90;;;;;;5043804;28;20262;-81
2023/11/05 10:54:18;;;;;;;2.63;2.13;;;13.00;99.90;;;;;;5036215;28;20291;-81
2023/11/05 10:56:48;;;;;;;4.15;1.80;;;13.00;99.90;;;;;;5035359;28;20610;-78
2023/11/05 10:59:50;;;;;;;1.75;1.65;;;13.00;99.90;;;;;;5019258;28;20225;-79
2023/11/05 11:02:21;;;;;;;1.98;1.77;;;13.10;99.90;;;;;;5035538;28;20229;-79
2023/11/05 11:04:48;;;;;;;2.50;1.90;;;13.10;99.90;;;;;;5024961;28;20676;-80
2023/11/05 11:07:18;;;;;;;1.45;1.35;;;13.10;99.90;;;;;;5035388;28;20229;-78
2023/11/05 11:09:49;;;;;;;2.47;1.73;;;13.10;99.90;;;;;;5051904;28;20224;-78
2023/11/05 11:12:31;;;;;;;2.00;1.90;;;13.10;99.90;;;;;;5055758;28;20506;-77
2023/11/05 11:15:00;;;;;;;3.53;2.20;;;13.10;99.90;;;;;;5055906;28;20471;-78
2023/11/05 11:17:33;;;;;;;3.10;1.87;;;13.10;99.90;;;;;;5055089;28;20467;-77
2023/11/05 11:20:09;;;;;;;2.27;1.93;;;13.20;99.90;;;;;;5055891;28;20775;-81
2023/11/05 11:22:41;;;;;;;4.40;1.80;;;13.20;99.90;;;;;;5054486;28;20466;-78
2023/11/05 11:25:11;;;;;;;2.13;1.85;;;13.20;99.90;;;;;;5055159;28;20236;-77
2023/11/05 11:27:40;;;;;;;1.95;1.60;;;13.20;99.90;;;;;;5055478;28;20225;-80
2023/11/05 11:30:10;;;;;;;1.83;1.67;;;13.30;99.90;;;;;;5055023;28;20324;-78
2023/11/05 11:32:38;;;;;;;2.10;1.83;;;13.30;99.90;;;;;;5053334;28;20562;-81
2023/11/05 11:35:06;;;;;;;2.25;1.40;;;13.40;99.90;;;;;;5055063;28;20471;-81
2023/11/05 11:37:34;;;;;;;1.60;1.40;;;13.40;99.90;;;;;;5052843;28;20236;-81
2023/11/05 11:40:02;;;;;;;1.48;1.20;;;13.40;99.90;;;;;;5055363;28;20549;-78
2023/11/05 11:42:29;;;;;;;1.70;1.57;;;13.50;99.90;;;;;;5054689;28;20307;-81
2023/11/05 11:44:57;;;;;;;2.97;2.50;;;13.50;99.90;;;;;;5055104;28;20495;-79
2023/11/05 11:47:27;;;;;;;2.07;1.50;;;13.50;99.90;;;;;;5055030;28;20554;-78
2023/11/05 11:49:54;;;;;;;1.23;1.13;;;13.60;99.90;;;;;;5060184;28;20463;-81
2023/11/05 11:52:21;;;;;;;5.30;2.50;;;13.60;99.90;;;;;;5064365;28;20505;-79
2023/11/05 11:54:48;;;;;;;2.10;1.77;;;13.70;99.90;;;;;;5062947;28;20224;-80
2023/11/05 11:57:17;;;;;;;1.83;1.20;;;13.70;99.90;;;;;;5060395;28;20467;-78
2023/11/05 11:59:48;;;;;;;1.90;1.43;;;13.70;99.90;;;;;;5056454;28;20459;-79
2023/11/05 12:02:15;;;;;;;1.80;1.30;;;13.70;99.90;;;;;;5057510;28;20555;-81
2023/11/05 12:04:44;;;;;;;3.17;1.90;;;13.70;99.90;;;;;;5058821;28;20470;-80
2023/11/05 12:07:11;;;;;;;4.53;1.30;;;13.80;99.90;;;;;;5059657;28;20984;-80
2023/11/05 12:09:40;;;;;;;2.72;1.30;;;13.80;99.90;;;;;;5060284;28;20471;-80
2023/11/05 12:12:08;;;;;;;1.50;1.20;;;13.80;99.90;;;;;;5063086;28;20231;-81
2023/11/05 12:14:35;;;;;;;2.07;1.70;;;13.90;99.90;;;;;;5060648;28;20495;-80
2023/11/05 12:17:02;;;;;;;2.43;1.60;;;13.90;99.90;;;;;;5058456;28;20542;-82
2023/11/05 12:19:31;;;;;;;3.27;1.43;;;14.00;99.90;;;;;;5055406;28;20574;-81
2023/11/05 12:21:59;;;;;;;4.20;3.00;;;14.00;99.90;;;;;;5056985;28;20534;-81
2023/11/05 12:24:28;;;;;;;1.47;1.20;;;14.00;99.90;;;;;;5055125;28;20489;-80
2023/11/05 12:26:55;;;;;;;1.50;1.37;;;14.10;99.90;;;;;;5055032;28;20788;-81
2023/11/05 12:29:22;;;;;;;1.73;1.23;;;14.10;99.90;;;;;;5053185;28;20464;-81
2023/11/05 12:31:49;;;;;;;2.60;1.50;;;14.10;99.90;;;;;;5055110;28;20558;-81
2023/11/05 12:34:16;;;;;;;2.10;1.30;;;14.20;99.90;;;;;;5055142;28;20551;-80
2023/11/05 12:36:44;;;;;;;1.90;1.50;;;14.20;99.90;;;;;;5054426;28;20482;-82
2023/11/05 12:39:12;;;;;;;2.07;1.80;;;14.20;99.90;;;;;;5056474;28;20969;-80
2023/11/05 12:41:39;;;;;;;1.43;1.33;;;14.20;99.90;;;;;;5054979;28;20479;-80
2023/11/05 12:44:07;;;;;;;2.97;2.23;;;14.30;99.90;;;;;;5056359;28;20491;-81
2023/11/05 12:46:34;;;;;;;8.50;6.30;;;14.30;99.90;;;;;;5056998;28;20625;-80
2023/11/05 12:49:01;;;;;;;6.83;5.77;;;14.30;99.90;;;;;;5055267;28;20470;-82
2023/11/05 12:51:28;;;;;;;6.23;5.63;;;14.30;99.90;;;;;;5054245;28;20529;-80
2023/11/05 12:53:55;;;;;;;3.27;2.97;;;14.40;99.90;;;;;;5056018;28;20467;-79
2023/11/05 12:56:24;;;;;;;3.67;2.70;;;14.40;99.90;;;;;;5055494;28;20501;-80